createdAt,value
2019-03-13T00:01:30.537Z,2.00
2019-03-13T00:04:00.527Z,2.10
2019-03-13T00:06:30.502Z,1.80
2019-03-13T00:09:00.608Z,1.80
2019-03-13T00:11:30.801Z,2.13
2019-03-13T00:14:00.981Z,1.87
2019-03-13T00:16:31.171Z,2.00
2019-03-13T00:19:01.146Z,2.00
2019-03-13T00:21:31.031Z,2.00
2019-03-13T00:24:01.155Z,1.70
2019-03-13T00:26:31.305Z,2.00
2019-03-13T00:29:01.489Z,1.90
2019-03-13T00:31:31.584Z,1.97
2019-03-13T00:34:01.705Z,2.23
2019-03-13T00:36:31.603Z,1.93
2019-03-13T00:39:01.532Z,1.57
2019-03-13T00:41:33.356Z,1.80
2019-03-13T00:44:03.359Z,1.83
2019-03-13T00:46:33.533Z,1.70
2019-03-13T00:49:03.483Z,1.50
2019-03-13T00:51:36.720Z,1.80
2019-03-13T00:54:05.634Z,1.33
2019-03-13T00:56:35.770Z,1.60
2019-03-13T00:59:05.696Z,1.50
2019-03-13T01:01:52.607Z,1.60
2019-03-13T01:04:26.891Z,1.83
2019-03-13T01:07:00.431Z,1.67
2019-03-13T01:09:30.908Z,1.60
2019-03-13T01:12:00.842Z,1.60
2019-03-13T01:14:30.747Z,1.63
2019-03-13T01:17:00.652Z,1.73
2019-03-13T01:19:30.550Z,1.90
2019-03-13T01:22:00.519Z,1.30
2019-03-13T01:24:30.470Z,1.60
2019-03-13T01:27:00.799Z,1.30
2019-03-13T01:29:31.037Z,1.33
2019-03-13T01:32:23.191Z,1.20
2019-03-13T01:35:15.579Z,1.40
2019-03-13T01:37:45.559Z,1.50
2019-03-13T01:40:15.985Z,1.70
2019-03-13T01:42:46.018Z,1.90
2019-03-13T01:45:17.956Z,1.80
2019-03-13T01:47:48.010Z,1.50
2019-03-13T01:50:17.939Z,1.80
2019-03-13T01:52:47.859Z,1.80
2019-03-13T01:55:18.183Z,1.70
2019-03-13T01:57:48.377Z,1.77
2019-03-13T02:00:18.560Z,2.00
2019-03-13T02:02:48.435Z,1.50
2019-03-13T02:05:18.322Z,1.60
2019-03-13T02:07:48.748Z,2.10
2019-03-13T02:10:19.173Z,1.73
2019-03-13T02:12:49.059Z,2.13
2019-03-13T02:15:20.210Z,1.70
2019-03-13T02:17:50.323Z,1.70
2019-03-13T02:20:20.449Z,1.90
2019-03-13T02:22:50.430Z,1.73
2019-03-13T02:25:20.486Z,1.60
2019-03-13T02:27:50.615Z,1.90
2019-03-13T02:30:25.942Z,1.87
2019-03-13T02:32:56.195Z,2.00
2019-03-13T02:35:26.309Z,1.90
2019-03-13T02:37:56.296Z,3.10
2019-03-13T02:40:26.176Z,1.80
2019-03-13T02:42:56.138Z,1.90
2019-03-13T02:45:26.070Z,2.03
2019-03-13T02:47:55.950Z,2.00
2019-03-13T02:50:25.875Z,2.03
2019-03-13T02:52:56.253Z,1.87
2019-03-13T02:55:26.637Z,2.17
2019-03-13T02:57:56.537Z,1.90
2019-03-13T03:00:47.333Z,1.80
2019-03-13T03:03:30.190Z,1.97
2019-03-13T03:06:00.479Z,1.83
2019-03-13T03:08:30.358Z,1.70
2019-03-13T03:11:00.270Z,1.97
2019-03-13T03:13:30.400Z,1.67
2019-03-13T03:16:00.358Z,1.80
2019-03-13T03:18:30.351Z,2.10
2019-03-13T03:21:00.231Z,1.97
2019-03-13T03:23:30.311Z,1.60
2019-03-13T03:26:02.168Z,0.80
2019-03-13T03:28:32.175Z,0.60
2019-03-13T03:31:02.113Z,0.77
2019-03-13T03:33:32.456Z,0.67
2019-03-13T03:36:02.344Z,0.70
2019-03-13T03:38:32.264Z,0.70
2019-03-13T03:41:02.403Z,0.83
2019-03-13T03:43:39.974Z,0.77
2019-03-13T03:46:04.183Z,0.80
2019-03-13T03:48:34.187Z,0.70
2019-03-13T03:51:04.056Z,0.80
2019-03-13T03:53:33.940Z,0.87
2019-03-13T03:56:03.845Z,0.80
2019-03-13T03:58:33.749Z,0.80
2019-03-13T04:01:03.653Z,0.70
2019-03-13T04:03:33.890Z,0.90
2019-03-13T04:06:03.971Z,0.70
2019-03-13T04:08:37.541Z,0.77
2019-03-13T04:11:05.546Z,0.60
2019-03-13T04:13:35.477Z,0.80
2019-03-13T04:16:05.548Z,0.90
2019-03-13T04:18:35.438Z,1.20
2019-03-13T04:21:05.406Z,1.00
2019-03-13T04:23:35.406Z,0.90
2019-03-13T04:26:05.762Z,1.00
2019-03-13T04:28:35.645Z,1.03
2019-03-13T04:31:05.844Z,1.20
2019-03-13T04:33:35.703Z,1.50
2019-03-13T04:36:05.681Z,1.20
2019-03-13T04:38:35.577Z,1.20
2019-03-13T04:41:05.547Z,1.20
2019-03-13T04:43:35.462Z,1.20
2019-03-13T04:46:05.409Z,1.80
2019-03-13T04:48:35.288Z,1.20
2019-03-13T04:51:05.479Z,1.30
2019-03-13T04:53:35.619Z,1.40
2019-03-13T04:56:05.510Z,1.37
2019-03-13T04:58:35.851Z,1.00
2019-03-13T05:01:05.730Z,1.50
2019-03-13T05:03:35.752Z,1.30
2019-03-13T05:06:19.503Z,1.30
2019-03-13T05:09:11.162Z,1.30
2019-03-13T05:11:41.320Z,1.47
2019-03-13T05:14:11.218Z,1.90
2019-03-13T05:16:41.109Z,1.20
2019-03-13T05:19:11.000Z,1.30
2019-03-13T05:21:40.896Z,1.30
2019-03-13T05:24:10.772Z,2.57
2019-03-13T05:26:40.664Z,1.30
2019-03-13T05:29:10.635Z,2.27
2019-03-13T05:31:40.519Z,1.47
2019-03-13T05:34:10.406Z,1.57
2019-03-13T05:36:40.306Z,1.50
2019-03-13T05:39:10.210Z,1.80
2019-03-13T05:41:40.498Z,1.37
2019-03-13T05:44:10.461Z,1.40
2019-03-13T05:46:40.567Z,1.40
2019-03-13T05:49:10.511Z,1.70
2019-03-13T05:51:40.781Z,1.40
2019-03-13T05:54:10.670Z,1.50
2019-03-13T05:56:41.065Z,1.90
2019-03-13T05:59:11.010Z,1.30
2019-03-13T06:01:40.896Z,1.73
2019-03-13T06:04:10.903Z,2.00
2019-03-13T06:06:40.991Z,1.37
2019-03-13T06:09:11.170Z,1.90
2019-03-13T06:11:41.179Z,1.60
2019-03-13T06:14:11.138Z,2.20
2019-03-13T06:16:41.440Z,2.40
2019-03-13T06:19:11.369Z,1.70
2019-03-13T06:21:41.305Z,2.00
2019-03-13T06:24:11.254Z,1.63
2019-03-13T06:26:41.514Z,1.60
2019-03-13T06:29:11.502Z,2.60
2019-03-13T06:31:41.543Z,2.40
2019-03-13T06:34:11.764Z,2.40
2019-03-13T06:36:41.743Z,1.70
2019-03-13T06:39:11.789Z,1.87
2019-03-13T06:41:42.123Z,1.40
2019-03-13T06:44:12.059Z,1.70
2019-03-13T06:46:41.991Z,1.97
2019-03-13T06:49:11.904Z,2.60
2019-03-13T06:51:42.222Z,2.80
2019-03-13T06:54:12.258Z,2.50
2019-03-13T06:56:42.204Z,3.97
2019-03-13T06:59:16.861Z,2.03
2019-03-13T07:02:05.537Z,1.80
2019-03-13T07:04:53.345Z,1.97
2019-03-13T07:07:31.682Z,2.47
2019-03-13T07:10:26.646Z,1.70
2019-03-13T07:13:24.362Z,2.07
2019-03-13T07:16:16.232Z,2.30
2019-03-13T07:19:09.443Z,2.30
2019-03-13T07:22:10.434Z,1.63
2019-03-13T07:24:51.239Z,1.87
2019-03-13T07:27:52.319Z,1.77
2019-03-13T07:30:37.490Z,1.70
2019-03-13T07:33:26.689Z,1.93
2019-03-13T07:36:03.880Z,1.87
2019-03-13T07:38:40.407Z,1.80
2019-03-13T07:41:25.260Z,2.00
2019-03-13T07:44:13.238Z,2.03
2019-03-13T07:46:52.812Z,1.73
2019-03-13T07:49:44.594Z,2.40
2019-03-13T07:52:39.741Z,1.73
2019-03-13T07:55:18.414Z,1.80
2019-03-13T07:58:16.607Z,2.03
2019-03-13T08:01:07.932Z,2.20
2019-03-13T08:03:55.649Z,1.70
2019-03-13T08:06:47.654Z,2.02
2019-03-13T08:09:28.960Z,2.43
2019-03-13T08:12:16.954Z,1.83
2019-03-13T08:14:54.996Z,1.90
2019-03-13T08:17:37.893Z,1.77
2019-03-13T08:20:19.334Z,1.70
2019-03-13T08:23:06.809Z,2.47
2019-03-13T08:25:45.366Z,1.60
2019-03-13T08:28:46.868Z,1.70
2019-03-13T08:31:30.277Z,1.83
2019-03-13T08:34:13.781Z,1.80
2019-03-13T08:36:49.915Z,2.17
2019-03-13T08:39:39.018Z,1.57
2019-03-13T08:42:18.639Z,1.77
2019-03-13T08:45:03.633Z,1.60
2019-03-13T08:47:48.646Z,1.90
2019-03-13T08:50:46.422Z,2.03
2019-03-13T08:53:24.556Z,1.60
2019-03-13T08:56:12.599Z,1.80
2019-03-13T08:58:53.350Z,1.47
2019-03-13T09:01:41.682Z,1.67
2019-03-13T09:04:31.670Z,1.70
2019-03-13T09:07:23.723Z,2.73
2019-03-13T09:10:28.244Z,2.07
2019-03-13T09:13:19.804Z,2.13
2019-03-13T09:16:06.574Z,1.47
2019-03-13T09:18:44.738Z,2.00
2019-03-13T09:21:27.001Z,1.57
2019-03-13T09:24:05.996Z,1.87
2019-03-13T09:26:54.836Z,2.17
2019-03-13T09:29:37.089Z,1.57
2019-03-13T09:32:35.819Z,1.90
2019-03-13T09:35:28.333Z,1.80
2019-03-13T09:38:29.283Z,1.57
2019-03-13T09:41:08.742Z,1.70
2019-03-13T09:43:59.677Z,1.90
2019-03-13T09:46:39.075Z,1.90
2019-03-13T09:49:31.245Z,2.00
2019-03-13T09:52:14.079Z,2.00
2019-03-13T09:55:04.355Z,1.40
2019-03-13T09:57:58.902Z,1.57
2019-03-13T10:00:47.395Z,1.60
2019-03-13T10:03:22.341Z,1.37
2019-03-13T10:06:31.816Z,1.40
2019-03-13T10:09:26.648Z,1.73
2019-03-13T10:12:24.812Z,1.60
2019-03-13T10:15:03.367Z,1.73
2019-03-13T10:17:52.059Z,1.40
2019-03-13T10:20:39.604Z,1.97
2019-03-13T10:23:27.807Z,1.47
2019-03-13T10:26:06.505Z,1.50
2019-03-13T10:29:04.267Z,1.50
2019-03-13T10:31:52.154Z,2.17
2019-03-13T10:34:41.538Z,1.70
2019-03-13T10:37:34.646Z,1.60
2019-03-13T10:40:23.645Z,1.57
2019-03-13T10:43:12.611Z,1.63
2019-03-13T10:45:49.863Z,1.40
2019-03-13T10:48:43.998Z,1.60
2019-03-13T10:51:29.696Z,1.90
2019-03-13T10:54:06.181Z,1.43
2019-03-13T10:56:43.337Z,1.50
2019-03-13T10:59:23.911Z,1.53
2019-03-13T11:02:11.281Z,1.67
2019-03-13T11:04:51.089Z,2.03
2019-03-13T11:07:42.852Z,2.03
2019-03-13T11:10:25.827Z,1.80
2019-03-13T11:13:09.294Z,1.70
2019-03-13T11:15:53.949Z,1.70
2019-03-13T11:18:32.657Z,1.70
2019-03-13T11:21:08.842Z,1.80
2019-03-13T11:24:01.242Z,1.70
2019-03-13T11:26:53.313Z,1.50
2019-03-13T11:29:48.318Z,1.70
2019-03-13T11:32:25.283Z,1.50
2019-03-13T11:35:09.931Z,1.63
2019-03-13T11:37:58.674Z,1.60
2019-03-13T11:40:37.391Z,1.73
2019-03-13T11:43:17.045Z,1.60
2019-03-13T11:45:58.496Z,1.73
2019-03-13T11:48:53.398Z,1.67
2019-03-13T11:51:42.414Z,1.73
2019-03-13T11:54:34.299Z,1.33
2019-03-13T11:57:24.791Z,1.30
2019-03-13T12:00:01.541Z,1.80
2019-03-13T12:02:41.788Z,1.23
2019-03-13T12:05:34.195Z,2.10
2019-03-13T12:08:22.077Z,2.60
2019-03-13T12:11:03.781Z,2.27
2019-03-13T12:13:51.834Z,1.60
2019-03-13T12:16:39.125Z,1.70
2019-03-13T12:19:30.801Z,1.80
2019-03-13T12:22:07.647Z,1.90
2019-03-13T12:24:48.950Z,1.60
2019-03-13T12:27:38.044Z,1.37
2019-03-13T12:30:27.846Z,1.43
2019-03-13T12:33:17.098Z,1.43
2019-03-13T12:35:54.571Z,1.53
2019-03-13T12:38:33.062Z,1.60
2019-03-13T12:41:21.977Z,1.10
2019-03-13T12:43:57.997Z,1.60
2019-03-13T12:46:37.524Z,1.33
2019-03-13T12:49:22.545Z,1.93
2019-03-13T12:52:04.603Z,2.30
2019-03-13T12:54:52.604Z,1.77
2019-03-13T12:57:52.922Z,1.90
2019-03-13T13:00:45.042Z,1.60
2019-03-13T13:03:25.826Z,2.00
2019-03-13T13:06:09.016Z,2.47
2019-03-13T13:09:06.686Z,2.33
2019-03-13T13:11:53.085Z,2.70
2019-03-13T13:14:41.955Z,2.23
2019-03-13T13:17:23.762Z,1.60
2019-03-13T13:19:53.758Z,1.93
2019-03-13T13:22:23.641Z,1.57
2019-03-13T13:24:53.562Z,1.93
2019-03-13T13:27:23.989Z,1.53
2019-03-13T13:29:53.896Z,1.67
2019-03-13T13:32:23.798Z,1.77
2019-03-13T13:34:53.697Z,2.30
2019-03-13T13:37:23.770Z,2.10
2019-03-13T13:39:53.663Z,1.57
2019-03-13T13:42:23.579Z,1.80
2019-03-13T13:44:53.547Z,1.90
2019-03-13T13:47:23.616Z,1.70
2019-03-13T13:49:59.614Z,1.67
2019-03-13T13:52:25.208Z,1.70
2019-03-13T13:54:55.163Z,1.90
2019-03-13T13:57:25.602Z,1.90
2019-03-13T13:59:55.601Z,1.97
2019-03-13T14:02:25.492Z,1.73
2019-03-13T14:04:55.471Z,1.97
2019-03-13T14:07:25.375Z,1.97
2019-03-13T14:09:55.293Z,1.70
2019-03-13T14:12:25.182Z,2.30
2019-03-13T14:14:55.332Z,2.63
2019-03-13T14:17:25.211Z,3.30
2019-03-13T14:19:55.425Z,1.60
2019-03-13T14:22:25.582Z,1.30
2019-03-13T14:24:55.496Z,1.40
2019-03-13T14:27:25.396Z,1.80
2019-03-13T14:29:55.432Z,1.60
2019-03-13T14:32:25.561Z,1.90
2019-03-13T14:34:55.617Z,1.60
2019-03-13T14:37:25.525Z,2.00
2019-03-13T14:39:55.751Z,1.67
2019-03-13T14:42:26.093Z,1.60
2019-03-13T14:44:56.241Z,1.50
2019-03-13T14:47:26.181Z,2.63
2019-03-13T14:49:56.186Z,1.80
2019-03-13T14:52:26.116Z,1.53
2019-03-13T14:54:56.260Z,2.03
2019-03-13T14:57:26.263Z,1.93
2019-03-13T14:59:56.192Z,1.97
2019-03-13T15:02:26.116Z,1.83
2019-03-13T15:04:56.061Z,1.70
2019-03-13T15:07:26.000Z,1.50
2019-03-13T15:09:55.938Z,1.70
2019-03-13T15:12:25.903Z,2.47
2019-03-13T15:14:56.343Z,1.80
2019-03-13T15:17:26.496Z,1.23
2019-03-13T15:19:56.627Z,1.63
2019-03-13T15:22:26.537Z,1.37
2019-03-13T15:24:56.735Z,1.80
2019-03-13T15:27:26.923Z,2.00
2019-03-13T15:29:56.885Z,1.40
2019-03-13T15:32:26.846Z,1.70
2019-03-13T15:34:56.805Z,2.20
2019-03-13T15:37:26.901Z,1.53
2019-03-13T15:39:56.853Z,1.80
2019-03-13T15:42:27.248Z,1.80
2019-03-13T15:44:57.205Z,1.60
2019-03-13T15:47:27.141Z,1.60
2019-03-13T15:49:57.047Z,1.70
2019-03-13T15:52:26.922Z,1.80
2019-03-13T15:54:57.009Z,1.70
2019-03-13T15:57:26.941Z,2.00
2019-03-13T15:59:57.126Z,1.70
2019-03-13T16:02:27.049Z,4.43
2019-03-13T16:04:56.975Z,1.67
2019-03-13T16:07:27.105Z,1.43
2019-03-13T16:09:56.990Z,2.07
2019-03-13T16:12:27.037Z,1.87
2019-03-13T16:14:56.954Z,1.93
2019-03-13T16:17:27.218Z,1.43
2019-03-13T16:19:57.728Z,1.23
2019-03-13T16:22:27.670Z,1.60
2019-03-13T16:24:57.593Z,1.77
2019-03-13T16:27:27.510Z,1.90
2019-03-13T16:29:58.091Z,1.40
2019-03-13T16:32:28.428Z,1.30
2019-03-13T16:34:58.350Z,1.70
2019-03-13T16:37:28.313Z,1.80
2019-03-13T16:39:58.468Z,2.80
2019-03-13T16:42:28.373Z,1.87
2019-03-13T16:44:58.522Z,1.50
2019-03-13T16:47:28.437Z,1.60
2019-03-13T16:49:58.363Z,1.90
2019-03-13T16:52:28.389Z,2.17
2019-03-13T16:54:58.670Z,2.50
2019-03-13T16:57:28.589Z,2.00
2019-03-13T17:00:00.835Z,1.60
2019-03-13T17:02:30.392Z,1.53
2019-03-13T17:05:00.441Z,1.30
2019-03-13T17:07:30.478Z,13.73
2019-03-13T17:10:00.615Z,8.37
2019-03-13T17:12:30.636Z,3.87
2019-03-13T17:15:00.567Z,4.47
2019-03-13T17:17:30.633Z,2.97
2019-03-13T17:20:00.738Z,2.43
2019-03-13T17:22:31.245Z,3.30
2019-03-13T17:25:01.515Z,1.63
2019-03-13T17:27:31.855Z,1.60
2019-03-13T17:30:02.130Z,1.40
2019-03-13T17:32:32.512Z,2.87
2019-03-13T17:35:02.454Z,8.43
2019-03-13T17:37:32.740Z,5.80
2019-03-13T17:40:02.760Z,5.77
2019-03-13T17:42:32.741Z,4.80
2019-03-13T17:45:02.868Z,2.97
2019-03-13T17:47:33.398Z,1.67
2019-03-13T17:50:03.335Z,1.97
2019-03-13T17:52:33.288Z,4.27
2019-03-13T17:55:03.376Z,5.70
2019-03-13T17:57:33.593Z,3.83
2019-03-13T18:00:05.231Z,2.00
2019-03-13T18:02:35.348Z,2.43
2019-03-13T18:05:05.988Z,1.93
2019-03-13T18:07:35.964Z,1.60
2019-03-13T18:10:07.999Z,2.00
2019-03-13T18:12:38.534Z,2.80
2019-03-13T18:15:09.346Z,2.47
2019-03-13T18:17:40.593Z,1.77
2019-03-13T18:20:13.706Z,1.77
2019-03-13T18:22:43.713Z,2.13
2019-03-13T18:25:17.861Z,2.00
2019-03-13T18:27:46.501Z,1.73
2019-03-13T18:30:19.988Z,1.80
2019-03-13T18:32:50.410Z,1.80
2019-03-13T18:35:20.903Z,1.70
2019-03-13T18:37:51.251Z,2.27
2019-03-13T18:40:21.303Z,4.80
2019-03-13T18:42:51.293Z,5.40
2019-03-13T18:45:24.126Z,1.93
2019-03-13T18:47:54.273Z,1.83
2019-03-13T18:50:24.490Z,1.60
2019-03-13T18:52:54.550Z,1.77
2019-03-13T18:55:24.772Z,1.87
2019-03-13T18:57:54.914Z,2.20
2019-03-13T19:00:30.200Z,2.73
2019-03-13T19:03:00.338Z,2.50
2019-03-13T19:05:30.613Z,1.77
2019-03-13T19:08:00.696Z,1.70
2019-03-13T19:10:30.627Z,1.70
2019-03-13T19:13:00.870Z,1.90
2019-03-13T19:15:31.505Z,2.30
2019-03-13T19:18:01.632Z,2.40
2019-03-13T19:20:32.142Z,2.03
2019-03-13T19:23:03.410Z,2.17
2019-03-13T19:25:33.472Z,2.40
2019-03-13T19:28:03.592Z,2.00
2019-03-13T19:30:33.821Z,1.87
2019-03-13T19:33:03.846Z,2.10
2019-03-13T19:35:33.885Z,1.50
2019-03-13T19:38:05.429Z,1.80
2019-03-13T19:40:35.779Z,6.50
2019-03-13T19:43:06.059Z,3.33
2019-03-13T19:45:39.181Z,2.47
2019-03-13T19:48:09.277Z,7.97
2019-03-13T19:50:39.935Z,4.50
2019-03-13T19:53:10.727Z,13.00
2019-03-13T19:55:41.960Z,3.67
2019-03-13T19:58:12.075Z,2.30
2019-03-13T20:00:42.448Z,1.83
2019-03-13T20:03:12.562Z,2.27
2019-03-13T20:05:45.742Z,1.87
2019-03-13T20:08:14.590Z,7.97
2019-03-13T20:10:44.710Z,5.10
2019-03-13T20:13:14.728Z,4.23
2019-03-13T20:15:44.863Z,1.63
2019-03-13T20:18:14.796Z,3.40
2019-03-13T20:20:44.700Z,5.43
2019-03-13T20:23:14.699Z,1.60
2019-03-13T20:25:44.721Z,2.63
2019-03-13T20:28:14.867Z,2.93
2019-03-13T20:30:44.989Z,3.27
2019-03-13T20:33:15.012Z,5.17
2019-03-13T20:35:45.006Z,2.73
2019-03-13T20:38:15.301Z,3.83
2019-03-13T20:40:45.228Z,2.47
2019-03-13T20:43:15.293Z,1.80
2019-03-13T20:45:45.285Z,2.90
2019-03-13T20:48:15.153Z,1.50
2019-03-13T20:50:45.019Z,1.53
2019-03-13T20:53:14.965Z,1.50
2019-03-13T20:55:44.952Z,2.20
2019-03-13T20:58:14.959Z,2.10
2019-03-13T21:00:45.180Z,1.70
2019-03-13T21:03:15.137Z,1.33
2019-03-13T21:05:45.050Z,4.17
2019-03-13T21:08:14.973Z,8.80
2019-03-13T21:10:44.861Z,4.37
2019-03-13T21:13:14.814Z,2.70
2019-03-13T21:15:44.701Z,3.40
2019-03-13T21:18:14.619Z,3.40
2019-03-13T21:20:44.832Z,1.57
2019-03-13T21:23:15.321Z,1.60
2019-03-13T21:25:45.436Z,1.90
2019-03-13T21:28:15.362Z,1.87
2019-03-13T21:30:45.778Z,2.03
2019-03-13T21:33:17.016Z,2.20
2019-03-13T21:35:46.940Z,2.30
2019-03-13T21:38:16.879Z,2.07
2019-03-13T21:40:47.091Z,2.07
2019-03-13T21:43:17.525Z,2.27
2019-03-13T21:45:47.869Z,2.77
2019-03-13T21:48:18.353Z,2.80
2019-03-13T21:50:50.358Z,4.67
2019-03-13T21:53:20.811Z,3.70
2019-03-13T21:55:50.709Z,4.80
2019-03-13T21:58:20.776Z,3.10
2019-03-13T22:00:50.772Z,8.33
2019-03-13T22:03:29.582Z,5.10
2019-03-13T22:05:52.679Z,3.90
2019-03-13T22:08:22.719Z,9.20
2019-03-13T22:10:52.860Z,24.50
2019-03-13T22:13:22.938Z,13.27
2019-03-13T22:15:53.307Z,7.50
2019-03-13T22:18:23.605Z,6.13
2019-03-13T22:20:54.099Z,4.70
2019-03-13T22:23:24.554Z,3.70
2019-03-13T22:25:54.859Z,4.40
2019-03-13T22:28:24.745Z,3.80
2019-03-13T22:30:54.617Z,4.90
2019-03-13T22:33:24.613Z,4.23
2019-03-13T22:35:54.859Z,7.43
2019-03-13T22:38:25.644Z,5.30
2019-03-13T22:40:55.527Z,5.40
2019-03-13T22:43:25.667Z,10.97
2019-03-13T22:45:55.603Z,18.47
2019-03-13T22:48:25.553Z,6.17
2019-03-13T22:50:55.504Z,5.60
2019-03-13T22:53:25.462Z,3.23
2019-03-13T22:55:55.375Z,6.03
2019-03-13T22:58:25.345Z,6.43
2019-03-13T23:01:02.104Z,21.60
2019-03-13T23:03:32.460Z,7.60
2019-03-13T23:06:02.891Z,4.53
2019-03-13T23:08:32.852Z,5.37
2019-03-13T23:11:02.848Z,3.50
2019-03-13T23:13:32.783Z,4.13
2019-03-13T23:16:02.767Z,4.00
2019-03-13T23:18:32.693Z,13.40
2019-03-13T23:21:03.332Z,6.03
2019-03-13T23:23:33.239Z,5.60
2019-03-13T23:26:03.225Z,5.63
2019-03-13T23:28:33.351Z,4.67
2019-03-13T23:31:03.257Z,4.87
2019-03-13T23:33:33.547Z,5.40
2019-03-13T23:36:03.538Z,5.60
2019-03-13T23:38:33.619Z,4.10
2019-03-13T23:43:23.855Z,4.10
2019-03-13T23:45:53.838Z,6.07
2019-03-13T23:48:24.364Z,4.10
2019-03-13T23:50:54.318Z,6.07
2019-03-13T23:53:24.463Z,5.53
2019-03-13T23:55:54.466Z,4.40
2019-03-13T23:58:24.361Z,6.07
